Time;durP1;ratioP1;P1;durP2;ratioP2;P2;SDS_P1;SDS_P2;PMS_P1;PMS_P2;Temp;Humidity;BMP_temperature;BMP_pressure;BME280_temperature;BME280_humidity;BME280_pressure;Samples;Min_cycle;Max_cycle;Signal;HPM_P1;HPM_P2
2022/11/13 00:00:01;;;;;;;146.23;47.57;;;;;;;7.29;100.00;101503.75;4180821;28;20240;-69
2022/11/13 00:02:27;;;;;;;135.17;45.77;;;;;;;7.31;100.00;101505.34;4197950;28;20242;-70
2022/11/13 00:04:54;;;;;;;141.90;45.77;;;;;;;7.26;100.00;101501.28;4185084;28;20331;-69
2022/11/13 00:07:20;;;;;;;148.93;47.43;;;;;;;7.27;100.00;101500.34;4184508;28;21836;-69
2022/11/13 00:09:47;;;;;;;141.67;45.80;;;;;;;7.27;100.00;101497.69;4170207;28;20612;-70
2022/11/13 00:12:14;;;;;;;127.53;44.10;;;;;;;7.36;100.00;101491.81;4192408;28;20665;-69
2022/11/13 00:14:40;;;;;;;136.47;44.73;;;;;;;7.35;100.00;101493.63;4210384;28;25317;-69
2022/11/13 00:17:07;;;;;;;144.90;45.83;;;;;;;7.37;100.00;101497.03;4188792;28;20300;-69
2022/11/13 00:19:33;;;;;;;136.70;44.73;;;;;;;7.43;100.00;101498.44;4194224;28;20453;-70
2022/11/13 00:22:00;;;;;;;143.70;46.67;;;;;;;7.39;100.00;101488.97;4192745;28;22558;-70
2022/11/13 00:24:26;;;;;;;125.67;43.63;;;;;;;7.49;100.00;101492.75;4180482;28;20849;-71
2022/11/13 00:26:53;;;;;;;144.97;45.70;;;;;;;7.53;100.00;101488.09;4194837;28;20313;-69
2022/11/13 00:29:20;;;;;;;131.97;45.33;;;;;;;7.53;100.00;101494.22;4193044;28;20716;-69
2022/11/13 00:31:47;;;;;;;138.30;45.03;;;;;;;7.56;100.00;101491.41;4202391;28;20233;-68
2022/11/13 00:34:13;;;;;;;135.30;44.80;;;;;;;7.60;100.00;101492.03;4190089;28;20240;-70
2022/11/13 00:36:59;;;;;;;119.47;42.23;;;;;;;7.76;100.00;101489.25;4197122;28;20509;-67
2022/11/13 00:39:26;;;;;;;131.67;44.17;;;;;;;7.61;100.00;101489.28;4186749;28;20234;-68
2022/11/13 00:41:52;;;;;;;133.57;45.17;;;;;;;7.61;100.00;101497.25;4192814;28;20233;-68
2022/11/13 00:44:19;;;;;;;127.10;43.87;;;;;;;7.65;100.00;101503.16;4192739;28;21232;-68
2022/11/13 00:46:45;;;;;;;116.43;41.93;;;;;;;7.71;100.00;101496.66;4189659;28;20238;-67
2022/11/13 00:49:12;;;;;;;129.80;42.63;;;;;;;7.66;100.00;101496.94;4203266;28;20229;-68
2022/11/13 00:51:39;;;;;;;118.37;43.03;;;;;;;7.69;100.00;101487.94;4189995;28;20231;-68
2022/11/13 00:54:05;;;;;;;118.17;42.13;;;;;;;7.76;100.00;101494.53;4186979;28;20232;-68
2022/11/13 00:56:32;;;;;;;124.83;43.00;;;;;;;7.66;100.00;101494.28;4189095;28;20355;-68
2022/11/13 00:58:58;;;;;;;117.33;42.40;;;;;;;7.54;100.00;101482.69;4185118;28;20309;-69
2022/11/13 01:01:24;;;;;;;129.07;44.77;;;;;;;7.48;100.00;101480.44;4188438;28;20235;-68
2022/11/13 01:03:51;;;;;;;135.80;44.03;;;;;;;7.37;100.00;101477.63;4182536;28;21076;-69
2022/11/13 01:06:18;;;;;;;129.30;44.70;;;;;;;7.40;100.00;101477.44;4186739;28;21598;-70
2022/11/13 01:08:46;;;;;;;137.87;46.20;;;;;;;7.45;100.00;101472.69;4193689;28;21981;-69
2022/11/13 01:11:15;;;;;;;137.40;45.53;;;;;;;7.37;100.00;101474.97;4191401;28;21164;-70
2022/11/13 01:13:43;;;;;;;144.13;46.10;;;;;;;7.38;100.00;101468.75;4177794;28;21739;-68
2022/11/13 01:16:12;;;;;;;144.20;44.10;;;;;;;7.35;100.00;101474.22;4201642;28;20244;-70
2022/11/13 01:18:40;;;;;;;114.30;41.47;;;;;;;7.43;100.00;101471.09;4182431;28;22019;-68
2022/11/13 01:21:10;;;;;;;133.60;43.10;;;;;;;7.35;100.00;101474.22;4184424;28;20242;-70
2022/11/13 01:23:36;;;;;;;136.50;43.33;;;;;;;7.34;100.00;101473.38;4185650;28;22772;-70
2022/11/13 01:26:15;;;;;;;147.33;44.90;;;;;;;7.30;100.00;101476.31;4198763;28;20303;-69
2022/11/13 01:28:42;;;;;;;124.47;42.33;;;;;;;7.34;100.00;101467.25;4164109;28;21092;-71
2022/11/13 01:31:12;;;;;;;138.70;41.87;;;;;;;7.40;100.00;101473.00;4192079;28;20250;-70
2022/11/13 01:33:39;;;;;;;146.73;44.77;;;;;;;7.40;100.00;101461.56;4182467;28;21773;-70
2022/11/13 01:36:10;;;;;;;142.77;44.77;;;;;;;7.42;100.00;101456.97;4187481;28;23247;-70
2022/11/13 01:38:36;;;;;;;140.00;44.87;;;;;;;7.38;100.00;101458.16;4167810;28;20233;-69
2022/11/13 01:41:04;;;;;;;154.03;44.70;;;;;;;7.41;100.00;101452.66;4189440;28;21326;-70
2022/11/13 01:43:34;;;;;;;146.57;42.90;;;;;;;7.37;100.00;101456.44;4176045;28;21765;-71
2022/11/13 01:46:07;;;;;;;168.67;46.87;;;;;;;7.28;100.00;101454.38;4184461;28;20251;-68
2022/11/13 01:48:37;;;;;;;150.40;45.50;;;;;;;7.37;100.00;101456.44;4186639;28;20300;-69
2022/11/13 01:51:10;;;;;;;159.47;45.97;;;;;;;7.41;100.00;101457.94;4180532;28;20237;-70
2022/11/13 01:53:36;;;;;;;162.50;46.23;;;;;;;7.46;100.00;101453.19;4151997;28;20325;-69
2022/11/13 01:56:03;;;;;;;160.53;44.27;;;;;;;7.40;100.00;101451.81;4185491;28;20247;-70
2022/11/13 01:58:30;;;;;;;167.40;47.70;;;;;;;7.40;100.00;101450.97;4182279;28;20229;-69
2022/11/13 02:00:56;;;;;;;156.10;44.07;;;;;;;7.30;100.00;101445.38;4175235;28;20244;-68
2022/11/13 02:03:23;;;;;;;166.63;47.17;;;;;;;7.35;100.00;101447.75;4182741;28;22102;-70
2022/11/13 02:05:50;;;;;;;165.57;46.10;;;;;;;7.32;100.00;101442.66;4176794;28;20230;-69
2022/11/13 02:08:16;;;;;;;158.07;44.37;;;;;;;7.37;100.00;101440.56;4182415;28;20266;-69
2022/11/13 02:10:43;;;;;;;166.40;44.53;;;;;;;7.33;100.00;101439.91;4170974;28;20244;-69
2022/11/13 02:13:10;;;;;;;152.70;45.07;;;;;;;7.37;100.00;101437.91;4185161;28;23549;-69
2022/11/13 02:15:38;;;;;;;146.63;43.37;;;;;;;7.50;100.00;101443.25;4187455;28;20237;-68
2022/11/13 02:18:05;;;;;;;148.57;43.47;;;;;;;7.44;100.00;101439.19;4192072;28;20381;-70
2022/11/13 02:20:39;;;;;;;129.50;40.73;;;;;;;7.57;100.00;101448.06;4181151;28;20371;-70
2022/11/13 02:23:32;;;;;;;137.17;41.00;;;;;;;7.51;100.00;101439.66;4175539;28;20381;-69
2022/11/13 02:25:59;;;;;;;140.60;41.40;;;;;;;7.52;100.00;101447.50;4185612;28;21051;-69
2022/11/13 02:28:26;;;;;;;146.33;43.17;;;;;;;7.54;100.00;101442.13;4193781;28;20245;-68
2022/11/13 02:30:52;;;;;;;138.30;41.90;;;;;;;7.61;100.00;101441.63;4199911;28;20312;-69
2022/11/13 02:33:31;;;;;;;150.13;43.57;;;;;;;7.54;100.00;101444.78;4195674;28;20608;-69
2022/11/13 02:35:58;;;;;;;162.23;43.53;;;;;;;7.37;100.00;101443.19;4190686;28;21752;-68
2022/11/13 02:38:24;;;;;;;143.17;44.07;;;;;;;7.55;100.00;101439.34;4189106;28;20308;-69
2022/11/13 02:40:51;;;;;;;157.00;43.67;;;;;;;7.34;100.00;101441.59;4182689;28;20697;-68
2022/11/13 02:43:18;;;;;;;153.37;43.40;;;;;;;7.44;100.00;101436.56;4189036;28;20267;-67
2022/11/13 02:45:45;;;;;;;154.50;44.07;;;;;;;7.44;100.00;101431.25;4179390;28;20697;-68
2022/11/13 02:48:11;;;;;;;142.47;42.30;;;;;;;7.45;100.00;101437.44;4185824;28;21280;-68
2022/11/13 02:50:38;;;;;;;156.43;43.03;;;;;;;7.46;100.00;101433.81;4186236;28;20310;-68
2022/11/13 02:53:05;;;;;;;161.97;44.03;;;;;;;7.43;100.00;101442.81;4194601;28;22793;-69
2022/11/13 02:55:31;;;;;;;148.23;43.30;;;;;;;7.49;100.00;101431.81;4194219;28;20663;-68
2022/11/13 02:57:58;;;;;;;153.17;43.23;;;;;;;7.49;100.00;101434.47;4209146;28;20347;-69
2022/11/13 03:00:24;;;;;;;144.93;41.63;;;;;;;7.52;100.00;101436.06;4189660;28;20423;-68
2022/11/13 03:02:51;;;;;;;147.87;41.40;;;;;;;7.47;100.00;101436.38;4178843;28;20304;-69
2022/11/13 03:05:17;;;;;;;158.33;42.50;;;;;;;7.37;100.00;101437.91;4192543;28;20305;-68
2022/11/13 03:07:44;;;;;;;145.63;41.57;;;;;;;7.33;100.00;101434.63;4188981;28;20395;-68
2022/11/13 03:10:11;;;;;;;138.50;39.50;;;;;;;7.31;100.00;101436.50;4190961;28;20233;-68
2022/11/13 03:12:37;;;;;;;151.17;42.07;;;;;;;7.33;100.00;101444.38;4191235;28;20297;-67
2022/11/13 03:15:06;;;;;;;155.93;42.37;;;;;;;7.33;100.00;101444.38;4182560;28;21300;-69
2022/11/13 03:17:33;;;;;;;168.00;42.67;;;;;;;7.29;100.00;101442.84;4199739;28;20225;-67
2022/11/13 03:19:59;;;;;;;153.93;42.00;;;;;;;7.33;100.00;101436.44;4191976;28;22667;-67
2022/11/13 03:22:26;;;;;;;169.23;43.67;;;;;;;7.20;100.00;101444.28;4188703;28;20319;-67
2022/11/13 03:24:52;;;;;;;138.47;41.43;;;;;;;7.33;100.00;101439.06;4194500;28;20415;-68
2022/11/13 03:27:19;;;;;;;130.10;39.60;;;;;;;7.36;100.00;101446.81;4192293;28;20236;-69
2022/11/13 03:29:45;;;;;;;157.13;42.60;;;;;;;7.28;100.00;101442.00;4191023;28;20229;-68
2022/11/13 03:32:12;;;;;;;160.00;42.23;;;;;;;7.19;100.00;101438.16;4194434;28;21747;-67
2022/11/13 03:34:38;;;;;;;185.87;44.30;;;;;;;7.21;100.00;101450.44;4177499;28;20625;-69
2022/11/13 03:37:05;;;;;;;185.23;44.70;;;;;;;7.22;100.00;101441.56;4203735;28;21673;-67
2022/11/13 03:39:31;;;;;;;173.93;45.10;;;;;;;7.33;100.00;101439.06;4205550;28;20236;-68
2022/11/13 03:41:58;;;;;;;159.63;42.53;;;;;;;7.43;100.00;101445.47;4190413;28;20277;-68
2022/11/13 03:44:24;;;;;;;197.07;47.20;;;;;;;7.33;100.00;101445.22;4174292;28;20245;-68
2022/11/13 03:46:51;;;;;;;160.43;42.73;;;;;;;7.46;100.00;101447.06;4191028;28;20229;-67
2022/11/13 03:49:17;;;;;;;176.73;43.47;;;;;;;7.46;100.00;101445.25;4188234;28;22423;-68
2022/11/13 03:51:43;;;;;;;164.57;42.90;;;;;;;7.44;100.00;101446.31;4186437;28;20333;-68
2022/11/13 03:54:10;;;;;;;185.23;45.70;;;;;;;7.33;100.00;101447.84;4178925;28;20253;-68
2022/11/13 03:56:37;;;;;;;179.57;44.73;;;;;;;7.33;100.00;101445.22;4193443;28;20242;-67
2022/11/13 03:59:03;;;;;;;181.37;46.30;;;;;;;7.28;100.00;101449.09;4191692;28;20239;-67
2022/11/13 04:01:30;;;;;;;160.00;41.83;;;;;;;7.33;100.00;101444.38;4183827;28;20569;-68
2022/11/13 04:03:56;;;;;;;177.47;44.37;;;;;;;7.90;100.00;101449.41;4188857;28;21859;-68
2022/11/13 04:06:23;;;;;;;157.27;42.27;;;;;;;7.61;100.00;101449.56;4191281;28;20239;-67
2022/11/13 04:08:49;;;;;;;161.17;42.67;;;;;;;7.62;100.00;101453.06;4189879;28;20313;-68
2022/11/13 04:11:15;;;;;;;155.23;43.83;;;;;;;7.41;100.00;101444.72;4191044;28;24027;-69
2022/11/13 04:13:42;;;;;;;166.87;44.70;;;;;;;7.43;100.00;101440.16;4190900;28;20774;-69
2022/11/13 04:16:08;;;;;;;166.87;44.57;;;;;;;7.33;100.00;101445.22;4180838;28;21473;-68
2022/11/13 04:18:35;;;;;;;162.13;43.83;;;;;;;7.31;100.00;101438.31;4182813;28;20239;-69
2022/11/13 04:21:03;;;;;;;182.73;46.37;;;;;;;7.28;100.00;101446.44;4186701;28;20267;-69
2022/11/13 04:23:30;;;;;;;161.70;43.53;;;;;;;7.38;100.00;101447.56;4189957;28;20737;-69
2022/11/13 04:25:56;;;;;;;205.23;46.07;;;;;;;7.33;100.00;101450.50;4204323;28;20240;-67
2022/11/13 04:28:22;;;;;;;167.97;45.60;;;;;;;7.34;100.00;101446.06;4197176;28;20237;-68
2022/11/13 04:30:52;;;;;;;160.77;41.87;;;;;;;7.26;100.00;101449.22;4189115;28;20234;-67
2022/11/13 04:33:19;;;;;;;186.73;44.40;;;;;;;7.24;100.00;101443.16;4200440;28;20233;-68
2022/11/13 04:35:45;;;;;;;185.47;42.50;;;;;;;7.26;100.00;101443.91;4190332;28;20397;-68
2022/11/13 04:38:12;;;;;;;175.20;42.03;;;;;;;7.18;100.00;101446.19;4189778;28;20242;-68
2022/11/13 04:40:39;;;;;;;140.87;39.43;;;;;;;7.44;100.00;101444.50;4183171;28;20296;-68
2022/11/13 04:43:05;;;;;;;160.97;43.17;;;;;;;7.38;100.00;101451.06;4183960;28;20354;-69
2022/11/13 04:45:32;;;;;;;173.97;42.80;;;;;;;7.29;100.00;101448.16;4196084;28;20908;-69
2022/11/13 04:47:59;;;;;;;168.83;41.50;;;;;;;7.22;100.00;101444.22;4196743;28;23121;-68
2022/11/13 04:50:25;;;;;;;185.17;43.83;;;;;;;7.19;100.00;101443.44;4177134;28;20229;-68
2022/11/13 04:52:52;;;;;;;175.40;40.30;;;;;;;7.24;100.00;101450.25;4203187;28;21776;-68
2022/11/13 04:55:19;;;;;;;167.07;42.00;;;;;;;7.23;100.00;101451.19;4186013;28;20299;-68
2022/11/13 04:57:45;;;;;;;176.23;42.40;;;;;;;7.21;100.00;101450.44;4174187;28;21332;-67
2022/11/13 05:00:12;;;;;;;185.43;43.53;;;;;;;7.21;100.00;101455.72;4186986;28;20621;-68
2022/11/13 05:02:39;;;;;;;189.47;41.57;;;;;;;7.32;100.00;101458.53;4189527;28;21091;-68
2022/11/13 05:05:05;;;;;;;166.17;42.47;;;;;;;7.25;100.00;101455.44;4183413;28;25766;-68
2022/11/13 05:07:32;;;;;;;180.40;44.17;;;;;;;7.31;100.00;101451.56;4182298;28;21854;-68
2022/11/13 05:09:58;;;;;;;176.60;42.43;;;;;;;7.17;100.00;101460.38;4196627;28;20333;-68
2022/11/13 05:12:25;;;;;;;202.33;45.97;;;;;;;7.13;100.00;101459.72;4184253;28;20311;-68
2022/11/13 05:14:52;;;;;;;203.53;46.47;;;;;;;7.07;100.00;101460.13;4180991;28;20654;-68
2022/11/13 05:17:18;;;;;;;188.37;44.27;;;;;;;7.23;100.00;101454.69;4183377;28;20298;-68
2022/11/13 05:19:45;;;;;;;177.70;43.60;;;;;;;7.28;100.00;101457.91;4173484;28;20638;-68
2022/11/13 05:22:11;;;;;;;159.70;43.13;;;;;;;7.21;100.00;101466.31;4185110;28;22476;-69
2022/11/13 05:24:38;;;;;;;196.67;46.17;;;;;;;7.26;100.00;101465.09;4187062;28;21023;-69
2022/11/13 05:27:04;;;;;;;158.53;43.73;;;;;;;7.31;100.00;101473.59;4178025;28;21318;-68
2022/11/13 05:29:31;;;;;;;141.47;42.97;;;;;;;7.43;100.00;101469.28;4181100;28;22827;-68
2022/11/13 05:31:57;;;;;;;186.13;46.00;;;;;;;7.44;100.00;101470.13;4189285;28;20327;-69
2022/11/13 05:34:24;;;;;;;151.03;43.50;;;;;;;7.47;100.00;101473.44;4172970;28;20257;-69
2022/11/13 05:36:50;;;;;;;181.30;44.37;;;;;;;7.45;100.00;101472.69;4184986;28;20332;-68
2022/11/13 05:39:17;;;;;;;183.70;45.90;;;;;;;7.55;100.00;101475.59;4182805;28;20245;-70
2022/11/13 05:41:43;;;;;;;176.07;45.67;;;;;;;7.35;100.00;101490.09;4202500;28;20275;-68
2022/11/13 05:44:10;;;;;;;199.63;47.20;;;;;;;7.27;100.00;101481.81;4202566;28;21748;-69
2022/11/13 05:46:36;;;;;;;189.77;46.97;;;;;;;7.27;100.00;101481.81;4187077;28;20240;-69
2022/11/13 05:49:03;;;;;;;205.63;48.50;;;;;;;7.25;100.00;101475.75;4201028;28;20671;-70
2022/11/13 05:51:31;;;;;;;189.67;47.40;;;;;;;7.27;100.00;101485.31;4188657;28;20801;-68
2022/11/13 05:53:58;;;;;;;214.03;49.50;;;;;;;7.28;100.00;101483.50;4188108;28;20547;-68
2022/11/13 05:56:27;;;;;;;177.43;44.83;;;;;;;7.38;100.00;101480.19;4186404;28;20251;-70
2022/11/13 05:58:54;;;;;;;174.40;44.37;;;;;;;7.46;100.00;101481.47;4188229;28;20237;-68
2022/11/13 06:01:33;;;;;;;201.83;46.90;;;;;;;7.40;100.00;101486.22;4187255;28;20581;-69
2022/11/13 06:04:00;;;;;;;195.93;45.87;;;;;;;7.38;100.00;101481.97;4188781;28;20241;-69
2022/11/13 06:06:28;;;;;;;198.93;45.57;;;;;;;7.39;100.00;101481.88;4182418;28;20332;-67
2022/11/13 06:08:55;;;;;;;152.63;41.57;;;;;;;7.40;100.00;101480.94;4192606;28;20289;-70
2022/11/13 06:11:24;;;;;;;218.37;48.17;;;;;;;7.46;100.00;101474.38;4187682;28;21346;-69
2022/11/13 06:13:52;;;;;;;193.87;46.63;;;;;;;7.37;100.00;101475.84;4206363;28;22991;-69
2022/11/13 06:16:26;;;;;;;196.10;47.53;;;;;;;7.34;100.00;101472.53;4188109;28;20237;-68
2022/11/13 06:18:55;;;;;;;212.90;50.10;;;;;;;7.34;100.00;101478.66;4200021;28;20825;-70
2022/11/13 06:21:24;;;;;;;212.17;48.67;;;;;;;7.33;100.00;101479.63;4188736;28;21707;-69
2022/11/13 06:23:51;;;;;;;205.37;49.03;;;;;;;7.36;100.00;101482.06;4187060;28;20635;-68
2022/11/13 06:26:22;;;;;;;212.73;47.70;;;;;;;7.43;100.00;101484.34;4185165;28;21823;-68
2022/11/13 06:28:49;;;;;;;168.87;46.27;;;;;;;7.49;100.00;101487.44;4199454;28;20243;-70
2022/11/13 06:31:19;;;;;;;233.00;59.50;;;;;;;7.51;100.00;101487.31;4211039;28;24518;-70
2022/11/13 06:33:45;;;;;;;151.83;43.33;;;;;;;7.69;100.00;101487.94;4182895;28;20423;-66
2022/11/13 06:36:14;;;;;;;174.83;44.43;;;;;;;7.82;100.00;101483.53;4199310;28;20320;-69
2022/11/13 06:38:41;;;;;;;168.53;42.63;;;;;;;7.81;100.00;101490.63;4208995;28;20300;-71
2022/11/13 06:41:11;;;;;;;145.43;38.70;;;;;;;7.82;100.00;101483.53;4190306;28;20474;-71
2022/11/13 06:43:37;;;;;;;135.73;37.10;;;;;;;7.80;100.00;101480.16;4190799;28;22457;-72
2022/11/13 06:46:12;;;;;;;142.37;36.73;;;;;;;7.68;100.00;101491.53;4214236;28;27056;-67
2022/11/13 06:48:38;;;;;;;126.50;32.60;;;;;;;7.65;100.00;101489.09;4167239;28;21124;-69
2022/11/13 06:51:06;;;;;;;121.43;33.27;;;;;;;7.74;100.00;101493.78;4204833;28;25513;-70
2022/11/13 06:53:33;;;;;;;119.17;34.03;;;;;;;7.71;100.00;101499.28;4181760;28;20248;-69
2022/11/13 06:56:00;;;;;;;114.47;34.30;;;;;;;7.66;100.00;101498.75;4179870;28;20241;-69
2022/11/13 06:58:26;;;;;;;116.97;34.67;;;;;;;7.68;100.00;101500.34;4186003;28;20645;-68
2022/11/13 07:00:54;;;;;;;139.43;37.30;;;;;;;7.63;100.00;101498.94;4197374;28;20305;-76
2022/11/13 07:03:23;;;;;;;109.37;34.37;;;;;;;7.66;100.00;101493.44;4188923;28;20248;-73
2022/11/13 07:05:50;;;;;;;101.87;31.87;;;;;;;7.72;100.00;101490.38;4170877;28;20233;-73
2022/11/13 07:08:17;;;;;;;115.27;33.03;;;;;;;7.90;100.00;101488.31;4196410;28;21235;-70
2022/11/13 07:10:51;;;;;;;112.50;31.87;;;;;;;7.88;100.00;101487.56;4193056;28;20252;-74
2022/11/13 07:13:18;;;;;;;98.77;30.90;;;;;;;7.95;100.00;101494.16;4165764;28;21316;-71
2022/11/13 07:15:45;;;;;;;100.00;30.70;;;;;;;7.97;100.00;101498.41;4189462;28;20292;-68
2022/11/13 07:18:11;;;;;;;101.60;30.67;;;;;;;8.11;100.00;101494.84;4200552;28;20305;-71
2022/11/13 07:20:38;;;;;;;99.40;30.13;;;;;;;8.09;100.00;101490.59;4203730;28;21243;-71
2022/11/13 07:23:04;;;;;;;84.47;28.33;;;;;;;8.17;100.00;101493.56;4190987;28;20251;-71
2022/11/13 07:25:31;;;;;;;100.63;30.63;;;;;;;8.21;100.00;101500.38;4202402;28;20276;-74
2022/11/13 07:27:57;;;;;;;90.40;30.20;;;;;;;8.23;100.00;101493.16;4183502;28;20327;-70
2022/11/13 07:30:24;;;;;;;87.50;29.47;;;;;;;8.21;100.00;101495.06;4178310;28;20248;-69
2022/11/13 07:32:50;;;;;;;95.27;30.07;;;;;;;8.12;100.00;101491.22;4190343;28;20288;-69
2022/11/13 07:35:17;;;;;;;80.47;29.03;;;;;;;8.13;100.00;101492.94;4207995;28;20260;-71
2022/11/13 07:37:44;;;;;;;72.63;26.30;;;;;;;8.21;100.00;101489.75;4186785;28;23532;-76
2022/11/13 07:40:10;;;;;;;83.77;28.83;;;;;;;8.17;100.00;101493.56;4200284;28;21105;-74
2022/11/13 07:42:38;;;;;;;84.53;27.60;;;;;;;8.14;100.00;101494.63;4192384;28;20225;-66
2022/11/13 07:45:05;;;;;;;66.30;26.50;;;;;;;8.20;100.00;101498.69;4181137;28;20316;-76
2022/11/13 07:47:32;;;;;;;57.93;24.37;;;;;;;8.24;100.00;101490.41;4210765;28;20260;-73
2022/11/13 07:49:58;;;;;;;61.73;24.40;;;;;;;8.23;100.00;101494.00;4199232;28;20378;-73
2022/11/13 07:52:33;;;;;;;57.67;23.57;;;;;;;8.27;100.00;101499.13;4204697;28;20576;-70
2022/11/13 07:55:00;;;;;;;59.17;22.43;;;;;;;8.25;100.00;101493.91;4202974;28;21565;-73
2022/11/13 07:57:26;;;;;;;60.63;22.80;;;;;;;8.29;100.00;101487.47;4196090;28;20303;-75
2022/11/13 07:59:52;;;;;;;52.47;19.97;;;;;;;8.36;100.00;101494.03;4212663;28;20601;-74
2022/11/13 08:02:20;;;;;;;46.67;19.40;;;;;;;8.18;100.00;101484.69;4181441;28;23765;-71
2022/11/13 08:04:52;;;;;;;42.77;18.50;;;;;;;8.18;100.00;101495.28;4198536;28;20429;-70
2022/11/13 08:07:18;;;;;;;40.47;17.10;;;;;;;8.33;100.00;101494.22;4192789;28;20245;-67
2022/11/13 08:09:45;;;;;;;43.23;17.27;;;;;;;8.34;100.00;101489.78;4185589;28;21542;-74
2022/11/13 08:12:12;;;;;;;39.83;17.80;;;;;;;8.38;100.00;101488.63;4189242;28;23623;-69
2022/11/13 08:14:38;;;;;;;42.73;16.93;;;;;;;8.35;100.00;101491.47;4194308;28;20234;-71
2022/11/13 08:17:04;;;;;;;38.67;16.83;;;;;;;8.37;100.00;101495.72;4182182;28;20703;-69
2022/11/13 08:19:31;;;;;;;39.20;16.63;;;;;;;8.33;100.00;101496.88;4171320;28;20237;-73
2022/11/13 08:21:57;;;;;;;44.47;17.87;;;;;;;8.31;100.00;101490.84;4189187;28;20793;-70
2022/11/13 08:24:24;;;;;;;39.23;16.80;;;;;;;8.32;100.00;101495.19;4187868;28;21802;-69
2022/11/13 08:26:51;;;;;;;45.43;18.67;;;;;;;8.13;100.00;101497.41;4185482;28;20243;-69
2022/11/13 08:29:17;;;;;;;41.20;17.80;;;;;;;8.19;100.00;101486.38;4192585;28;21802;-71
2022/11/13 08:31:44;;;;;;;53.20;20.53;;;;;;;8.23;100.00;101483.41;4181642;28;21087;-69
2022/11/13 08:34:10;;;;;;;52.00;21.13;;;;;;;8.32;100.00;101489.06;4194544;28;20251;-73
2022/11/13 08:36:37;;;;;;;50.43;20.73;;;;;;;8.34;100.00;101489.78;4191234;28;20355;-71
2022/11/13 08:39:03;;;;;;;46.80;19.63;;;;;;;8.29;100.00;101486.59;4177101;28;20256;-71
2022/11/13 08:41:30;;;;;;;47.57;17.93;;;;;;;8.23;100.00;101498.47;4189078;28;20268;-69
2022/11/13 08:43:56;;;;;;;40.73;16.67;;;;;;;8.26;100.00;101495.59;4177521;28;20249;-70
2022/11/13 08:46:23;;;;;;;43.33;16.00;;;;;;;8.33;100.00;101496.88;4178085;28;20309;-70
2022/11/13 08:48:49;;;;;;;42.27;18.50;;;;;;;8.38;100.00;101493.91;4168587;28;21638;-72
2022/11/13 08:51:17;;;;;;;41.60;17.60;;;;;;;8.31;100.00;101496.16;4178339;28;21547;-69
2022/11/13 08:53:44;;;;;;;41.73;18.07;;;;;;;8.42;100.00;101495.44;4188635;28;20506;-70
2022/11/13 08:56:10;;;;;;;48.83;20.03;;;;;;;8.38;100.00;101508.06;4186382;28;20230;-68
2022/11/13 08:58:37;;;;;;;44.00;19.17;;;;;;;8.42;100.00;101498.94;4176406;28;20241;-70
2022/11/13 09:01:04;;;;;;;50.03;19.87;;;;;;;8.47;100.00;101500.44;4174079;28;20370;-71
2022/11/13 09:03:30;;;;;;;48.03;20.17;;;;;;;8.49;100.00;101496.72;4174148;28;20932;-71
2022/11/13 09:05:57;;;;;;;46.27;18.73;;;;;;;8.48;100.00;101502.16;4179628;28;22098;-69
2022/11/13 09:08:24;;;;;;;44.70;19.20;;;;;;;8.47;100.00;101501.28;4182462;28;20318;-68
2022/11/13 09:10:50;;;;;;;42.10;18.73;;;;;;;8.33;100.00;101488.94;4198713;28;20275;-69
2022/11/13 09:13:17;;;;;;;37.47;17.33;;;;;;;8.27;100.00;101489.38;4178667;28;20656;-69
2022/11/13 09:15:44;;;;;;;39.50;16.90;;;;;;;8.17;100.00;101486.50;4215084;28;20237;-66
2022/11/13 09:18:10;;;;;;;36.33;15.03;;;;;;;8.07;100.00;101492.50;4213689;28;23444;-68
2022/11/13 09:20:37;;;;;;;32.83;13.73;;;;;;;8.12;100.00;101485.09;4175107;28;20302;-68
2022/11/13 09:23:06;;;;;;;28.77;13.63;;;;;;;8.29;100.00;101483.94;4188669;28;21539;-68
2022/11/13 09:25:35;;;;;;;24.43;12.27;;;;;;;8.47;100.00;101487.19;4197513;28;20229;-68
2022/11/13 09:28:04;;;;;;;23.03;11.27;;;;;;;8.38;100.00;101481.53;4178314;28;21754;-67
2022/11/13 09:30:31;;;;;;;20.97;11.07;;;;;;;8.56;100.00;101483.88;4191563;28;20237;-66
2022/11/13 09:32:59;;;;;;;19.43;10.37;;;;;;;8.48;100.00;101489.72;4185366;28;21677;-67
2022/11/13 09:35:35;;;;;;;20.93;9.73;;;;;;;8.44;100.00;101489.09;4179402;28;20461;-68
2022/11/13 09:38:07;;;;;;;18.37;9.47;;;;;;;8.58;100.00;101479.34;4183559;28;21266;-68
2022/11/13 09:40:48;;;;;;;19.33;9.37;;;;;;;8.68;100.00;101483.03;4177042;28;20233;-67
2022/11/13 09:43:39;;;;;;;22.87;11.67;;;;;;;8.75;100.00;101484.31;4227221;28;20232;-68
2022/11/13 09:46:16;;;;;;;22.13;12.17;;;;;;;8.76;100.00;101477.22;4215332;28;22628;-68
2022/11/13 09:48:58;;;;;;;25.20;12.57;;;;;;;8.75;100.00;101479.00;4188927;28;20245;-68
2022/11/13 09:51:27;;;;;;;26.23;12.50;;;;;;;8.63;100.00;101474.53;4190974;28;26046;-68
2022/11/13 09:53:54;;;;;;;31.17;15.30;;;;;;;8.57;100.00;101472.31;4180312;28;20241;-67
2022/11/13 09:56:28;;;;;;;27.97;14.50;;;;;;;8.56;100.00;101478.59;4201432;28;20295;-67
2022/11/13 09:59:32;;;;;;;33.50;16.23;;;;;;;8.61;100.00;101471.16;4173841;28;20950;-68
2022/11/13 10:02:14;;;;;;;31.13;16.37;;;;;;;8.63;100.00;101466.59;4192229;28;21069;-70
2022/11/13 10:05:09;;;;;;;32.40;15.70;;;;;;;8.65;100.00;101464.69;4167324;28;21247;-67
2022/11/13 10:07:43;;;;;;;31.50;15.00;;;;;;;8.74;100.00;101461.38;4172031;28;20248;-68
2022/11/13 10:10:41;;;;;;;36.30;15.80;;;;;;;8.66;100.00;101458.41;4171679;28;20242;-66
2022/11/13 10:13:14;;;;;;;33.97;15.20;;;;;;;8.70;100.00;101459.06;4190037;28;20238;-66
2022/11/13 10:15:42;;;;;;;35.33;15.60;;;;;;;8.70;100.00;101453.75;4176546;28;20237;-67
2022/11/13 10:18:25;;;;;;;28.40;13.50;;;;;;;8.67;100.00;101454.81;4179515;28;20306;-68
2022/11/13 10:20:56;;;;;;;30.83;13.00;;;;;;;8.55;100.00;101450.38;4159566;28;20229;-68
2022/11/13 10:23:34;;;;;;;26.90;12.60;;;;;;;8.63;100.00;101456.81;4188704;28;20296;-67
2022/11/13 10:26:14;;;;;;;22.90;11.83;;;;;;;8.73;100.00;101451.72;4157107;28;20596;-68
2022/11/13 10:28:40;;;;;;;25.60;11.40;;;;;;;8.80;100.00;101454.78;4171485;28;21254;-67
2022/11/13 10:31:16;;;;;;;25.40;11.43;;;;;;;8.77;100.00;101455.84;4200145;28;20267;-66
2022/11/13 10:33:43;;;;;;;27.27;12.83;;;;;;;8.66;100.00;101451.31;4165516;28;20664;-41
2022/11/13 10:36:30;;;;;;;31.33;14.07;;;;;;;8.74;100.00;101450.78;4188337;28;21130;-69
2022/11/13 10:39:04;;;;;;;34.87;16.73;;;;;;;8.75;100.00;101446.31;4187966;28;20241;-69
2022/11/13 10:41:30;;;;;;;37.83;17.90;;;;;;;8.57;100.00;101448.44;4164598;28;20304;-70
2022/11/13 10:44:01;;;;;;;34.43;16.80;;;;;;;8.52;100.00;101443.47;4176503;28;20237;-69
2022/11/13 10:46:29;;;;;;;34.07;16.43;;;;;;;8.49;100.00;101450.78;4226699;28;20428;-69
2022/11/13 10:49:03;;;;;;;34.13;16.03;;;;;;;8.41;100.00;101448.66;4275400;28;20302;-69
2022/11/13 10:51:34;;;;;;;30.73;14.80;;;;;;;8.37;100.00;101441.84;4174005;28;20365;-70
2022/11/13 10:54:18;;;;;;;33.53;15.23;;;;;;;8.32;100.00;101442.16;4202596;28;20337;-68
2022/11/13 10:56:59;;;;;;;35.73;14.27;;;;;;;8.32;100.00;101436.84;4197858;28;23084;-70
2022/11/13 10:59:39;;;;;;;29.90;14.70;;;;;;;8.48;100.00;101433.19;4215315;28;20740;-70
2022/11/13 11:02:25;;;;;;;33.83;14.23;;;;;;;8.49;100.00;101430.41;4204251;28;20245;-69
2022/11/13 11:05:32;;;;;;;34.23;14.30;;;;;;;8.53;100.00;101425.75;4226285;28;20332;-69
2022/11/13 11:07:59;;;;;;;38.07;17.53;;;;;;;8.66;100.00;101426.56;4256323;28;20309;-70
2022/11/13 11:12:14;;;;;;;43.00;19.40;;;;;;;8.48;100.00;101422.56;4232665;28;21235;-70